SVW26C KPBI-EGKK
Flight info
| Callsign | SVW26C |
|---|---|
| Flight time | N/A |
| Altitude | 35000 |
| Route | SLIDZ3 LENDS M203 ADOOR M202 UKOKA/M080F350 M202 KINER/M080F370 M202 LOMPI/N0457F370 DCT SUPRY/M080F390 DCT 46N050W 48N040W 50N030W 52N020W DCT LIMRI DCT XETBO/N0451F390 DCT NORLA DCT FONZU DCT ELRIP DCT OTMET |
| Aircraft | B737/M-SDE2E3FGHIRWXY/LB1 |
Departure
| Time | 2026-04-28 16:46 |
|---|---|
| Airport | Palm Beach International Airport (KPBI) |
Arrival
| Time | N/A |
|---|---|
| Airport | London Gatwick Airport (EGKK) |
| Time | Latitude | Longitude | Altitude | Speed | Heading |
|---|---|---|---|---|---|
| 2026-04-28 16:18 | 26.67980 | -80.09459 | 21 ft | 0 kts | 93° |
| 2026-04-28 16:41 | 26.67979 | -80.09447 | 20 ft | 4 kts | 93° |
| 2026-04-28 16:41 | 26.67985 | -80.09389 | 20 ft | 10 kts | 74° |
| 2026-04-28 16:41 | 26.68043 | -80.09359 | 22 ft | 11 kts | 331° |
| 2026-04-28 16:41 | 26.68097 | -80.09426 | 21 ft | 14 kts | 314° |
| 2026-04-28 16:42 | 26.68151 | -80.09515 | 21 ft | 14 kts | 278° |
| 2026-04-28 16:42 | 26.68159 | -80.09632 | 21 ft | 17 kts | 272° |
| 2026-04-28 16:42 | 26.68165 | -80.09786 | 21 ft | 22 kts | 273° |
| 2026-04-28 16:42 | 26.68174 | -80.09977 | 20 ft | 26 kts | 273° |
| 2026-04-28 16:43 | 26.68182 | -80.10172 | 20 ft | 24 kts | 272° |
| 2026-04-28 16:43 | 26.68189 | -80.10355 | 20 ft | 23 kts | 273° |
| 2026-04-28 16:43 | 26.68197 | -80.10528 | 20 ft | 22 kts | 273° |
| 2026-04-28 16:43 | 26.68206 | -80.10701 | 20 ft | 22 kts | 272° |
| 2026-04-28 16:44 | 26.68209 | -80.10791 | 20 ft | 6 kts | 274° |
| 2026-04-28 16:44 | 26.68229 | -80.10827 | 21 ft | 6 kts | 339° |
| 2026-04-28 16:44 | 26.68290 | -80.10826 | 20 ft | 11 kts | 12° |
| 2026-04-28 16:44 | 26.68319 | -80.10761 | 20 ft | 10 kts | 88° |
| 2026-04-28 16:45 | 26.68322 | -80.10683 | 20 ft | 10 kts | 88° |
| 2026-04-28 16:45 | 26.68315 | -80.10579 | 20 ft | 30 kts | 96° |
| 2026-04-28 16:45 | 26.68289 | -80.10098 | 21 ft | 92 kts | 92° |
| 2026-04-28 16:45 | 26.68250 | -80.09182 | 21 ft | 141 kts | 93° |
| 2026-04-28 16:46 | 26.68188 | -80.07967 | 211 ft | 165 kts | 91° |
| 2026-04-28 16:46 | 26.68136 | -80.06662 | 803 ft | 169 kts | 90° |
| 2026-04-28 16:46 | 26.68161 | -80.05362 | 1406 ft | 171 kts | 74° |
| 2026-04-28 16:46 | 26.68712 | -80.04084 | 1636 ft | 195 kts | 61° |
| 2026-04-28 16:47 | 26.69381 | -80.02672 | 1845 ft | 217 kts | 62° |
| 2026-04-28 16:47 | 26.70110 | -80.01115 | 2032 ft | 236 kts | 62° |
| 2026-04-28 16:47 | 26.70903 | -79.99415 | 2309 ft | 254 kts | 62° |
| 2026-04-28 16:47 | 26.71717 | -79.97684 | 2983 ft | 257 kts | 59° |
| 2026-04-28 16:48 | 26.72773 | -79.96058 | 3622 ft | 260 kts | 49° |
| 2026-04-28 16:48 | 26.73969 | -79.94527 | 4336 ft | 263 kts | 47° |
| 2026-04-28 16:48 | 26.75202 | -79.92987 | 5040 ft | 269 kts | 48° |
| 2026-04-28 16:48 | 26.76456 | -79.91412 | 5718 ft | 272 kts | 48° |
| 2026-04-28 16:49 | 26.77719 | -79.89812 | 6434 ft | 275 kts | 48° |
| 2026-04-28 16:49 | 26.78990 | -79.88188 | 7126 ft | 278 kts | 48° |
| 2026-04-28 16:49 | 26.80256 | -79.86561 | 7963 ft | 276 kts | 48° |
| 2026-04-28 16:49 | 26.81523 | -79.84928 | 8769 ft | 281 kts | 48° |
| 2026-04-28 16:50 | 26.82808 | -79.83267 | 9611 ft | 283 kts | 48° |
| 2026-04-28 16:50 | 26.84098 | -79.81595 | 10395 ft | 287 kts | 47° |
| 2026-04-28 16:50 | 26.85452 | -79.79841 | 10657 ft | 310 kts | 48° |
| 2026-04-28 16:50 | 26.86917 | -79.77940 | 10846 ft | 334 kts | 48° |
| 2026-04-28 16:51 | 26.88482 | -79.75907 | 11009 ft | 356 kts | 48° |
| 2026-04-28 16:51 | 26.90144 | -79.73747 | 11173 ft | 375 kts | 48° |
| 2026-04-28 16:51 | 26.91851 | -79.71527 | 11580 ft | 385 kts | 48° |
| 2026-04-28 16:51 | 26.93649 | -79.69357 | 12588 ft | 375 kts | 44° |
| 2026-04-28 16:52 | 26.95525 | -79.67378 | 13666 ft | 366 kts | 41° |
| 2026-04-28 16:52 | 26.97407 | -79.65483 | 14521 ft | 363 kts | 39° |
| 2026-04-28 16:52 | 26.99483 | -79.63841 | 15111 ft | 367 kts | 32° |
| 2026-04-28 16:52 | 27.01672 | -79.62322 | 15677 ft | 372 kts | 31° |
| 2026-04-28 16:53 | 27.03904 | -79.60816 | 16264 ft | 376 kts | 31° |
| 2026-04-28 16:53 | 27.06161 | -79.59295 | 16877 ft | 380 kts | 31° |
| 2026-04-28 16:53 | 27.08431 | -79.57757 | 17478 ft | 383 kts | 31° |
| 2026-04-28 16:53 | 27.10720 | -79.56192 | 18075 ft | 387 kts | 31° |
| 2026-04-28 16:54 | 27.13027 | -79.54605 | 18628 ft | 391 kts | 31° |
| 2026-04-28 16:54 | 27.15349 | -79.53000 | 19145 ft | 394 kts | 31° |
| 2026-04-28 16:54 | 27.17690 | -79.51375 | 19686 ft | 396 kts | 31° |
| 2026-04-28 16:54 | 27.19244 | -79.50295 | 20048 ft | 398 kts | 31° |
| 2026-04-28 16:55 | 27.22412 | -79.48089 | 20775 ft | 401 kts | 31° |
| 2026-04-28 16:55 | 27.24765 | -79.46449 | 21300 ft | 404 kts | 31° |
| 2026-04-28 16:55 | 27.27159 | -79.44780 | 21826 ft | 406 kts | 31° |
| 2026-04-28 16:55 | 27.29571 | -79.43096 | 22342 ft | 409 kts | 31° |
| 2026-04-28 16:56 | 27.32000 | -79.41400 | 22823 ft | 412 kts | 31° |
| 2026-04-28 16:56 | 27.34454 | -79.39686 | 23243 ft | 417 kts | 31° |
| 2026-04-28 16:56 | 27.41978 | -79.34425 | 24567 ft | 423 kts | 31° |
| 2026-04-28 16:56 | 27.52124 | -79.27319 | 26110 ft | 434 kts | 30° |
| 2026-04-28 16:57 | 27.58957 | -79.22523 | 27067 ft | 440 kts | 30° |
| 2026-04-28 16:57 | 27.69486 | -79.15119 | 28431 ft | 450 kts | 30° |
| 2026-04-28 16:57 | 27.80241 | -79.07538 | 29663 ft | 460 kts | 30° |
| 2026-04-28 16:57 | 27.91146 | -78.99832 | 30939 ft | 463 kts | 31° |
| 2026-04-28 16:58 | 28.01982 | -78.92154 | 32506 ft | 455 kts | 30° |
| 2026-04-28 16:58 | 28.11266 | -78.85563 | 33747 ft | 449 kts | 30° |
| 2026-04-28 16:58 | 28.13908 | -78.83685 | 33996 ft | 449 kts | 30° |
| 2026-04-28 16:58 | 28.16553 | -78.81805 | 34255 ft | 448 kts | 30° |
| 2026-04-28 16:59 | 28.19192 | -78.79927 | 34508 ft | 447 kts | 30° |
| 2026-04-28 16:59 | 28.21828 | -78.78050 | 34710 ft | 448 kts | 30° |
| 2026-04-28 16:59 | 28.24476 | -78.76164 | 34826 ft | 450 kts | 30° |
| 2026-04-28 16:59 | 28.27134 | -78.74270 | 35002 ft | 451 kts | 30° |
| 2026-04-28 17:00 | 28.29789 | -78.72376 | 35186 ft | 451 kts | 30° |
| 2026-04-28 17:00 | 28.47336 | -78.59836 | 35249 ft | 471 kts | 30° |
| 2026-04-28 17:01 | 28.69732 | -78.43748 | 35163 ft | 476 kts | 30° |
| 2026-04-28 17:01 | 28.91932 | -78.27720 | 35160 ft | 466 kts | 30° |
| 2026-04-28 17:02 | 29.13719 | -78.11913 | 35203 ft | 462 kts | 30° |
| 2026-04-28 17:02 | 29.35504 | -77.96029 | 35222 ft | 468 kts | 30° |
| 2026-04-28 17:03 | 29.68986 | -77.71450 | 35188 ft | 477 kts | 31° |
| 2026-04-28 17:03 | 29.91166 | -77.55058 | 35187 ft | 469 kts | 31° |
| 2026-04-28 17:04 | 30.23779 | -77.30799 | 35220 ft | 466 kts | 31° |
| 2026-04-28 17:05 | 30.56760 | -77.06064 | 35262 ft | 480 kts | 32° |
| 2026-04-28 17:06 | 30.71437 | -76.91456 | 35234 ft | 487 kts | 49° |
| 2026-04-28 17:06 | 30.98210 | -76.55482 | 35230 ft | 492 kts | 49° |
| 2026-04-28 17:07 | 31.16053 | -76.31485 | 35198 ft | 485 kts | 48° |
| 2026-04-28 17:07 | 31.33332 | -76.08104 | 35222 ft | 474 kts | 47° |
| 2026-04-28 17:08 | 31.50509 | -75.84723 | 35252 ft | 475 kts | 47° |
| 2026-04-28 17:08 | 31.67882 | -75.60928 | 35247 ft | 483 kts | 47° |
| 2026-04-28 17:09 | 31.85390 | -75.36790 | 35223 ft | 485 kts | 46° |
| 2026-04-28 17:09 | 32.02887 | -75.12514 | 35220 ft | 486 kts | 46° |
| 2026-04-28 17:10 | 32.20268 | -74.88241 | 35196 ft | 480 kts | 46° |
| 2026-04-28 17:10 | 32.37161 | -74.64500 | 35208 ft | 470 kts | 46° |
| 2026-04-28 17:11 | 32.53979 | -74.40719 | 35238 ft | 474 kts | 46° |
| 2026-04-28 17:11 | 32.70962 | -74.16540 | 35213 ft | 478 kts | 46° |
| 2026-04-28 17:12 | 32.87935 | -73.92214 | 35218 ft | 474 kts | 45° |
| 2026-04-28 17:12 | 33.04517 | -73.68296 | 35179 ft | 463 kts | 45° |
| 2026-04-28 17:13 | 33.20653 | -73.44873 | 35200 ft | 457 kts | 44° |
| 2026-04-28 17:13 | 33.33019 | -73.26831 | 35230 ft | 455 kts | 44° |
| 2026-04-28 17:14 | 33.49147 | -73.03173 | 35220 ft | 464 kts | 44° |
| 2026-04-28 17:14 | 33.65496 | -72.79010 | 35171 ft | 466 kts | 44° |
| 2026-04-28 17:15 | 33.81647 | -72.54986 | 35177 ft | 457 kts | 44° |
| 2026-04-28 17:15 | 33.97452 | -72.31328 | 35185 ft | 454 kts | 44° |
| 2026-04-28 17:16 | 34.09779 | -72.13214 | 35175 ft | 453 kts | 43° |
| 2026-04-28 17:16 | 34.25769 | -71.89648 | 35176 ft | 453 kts | 43° |
| 2026-04-28 17:17 | 34.41668 | -71.66042 | 35133 ft | 451 kts | 43° |
| 2026-04-28 17:17 | 34.57460 | -71.42437 | 35134 ft | 449 kts | 43° |
| 2026-04-28 17:18 | 34.69521 | -71.24306 | 35115 ft | 448 kts | 43° |
| 2026-04-28 17:18 | 34.85139 | -71.00672 | 35110 ft | 448 kts | 43° |
| 2026-04-28 17:19 | 35.00591 | -70.77125 | 35122 ft | 446 kts | 43° |
| 2026-04-28 17:19 | 35.16016 | -70.53465 | 35125 ft | 444 kts | 43° |
| 2026-04-28 17:20 | 35.28819 | -70.33704 | 35080 ft | 442 kts | 43° |
| 2026-04-28 17:20 | 35.46466 | -70.06283 | 35068 ft | 440 kts | 43° |
| 2026-04-28 17:21 | 35.61585 | -69.82614 | 35083 ft | 440 kts | 43° |
| 2026-04-28 17:22 | 35.84133 | -69.47010 | 35052 ft | 438 kts | 43° |
| 2026-04-28 17:22 | 35.99043 | -69.23265 | 35013 ft | 437 kts | 43° |
| 2026-04-28 17:23 | 36.21305 | -68.87504 | 34998 ft | 437 kts | 42° |
| 2026-04-28 17:23 | 36.36077 | -68.63563 | 34979 ft | 436 kts | 42° |
| 2026-04-28 17:24 | 36.50753 | -68.39607 | 34970 ft | 434 kts | 42° |
| 2026-04-28 17:24 | 36.61788 | -68.21497 | 34962 ft | 433 kts | 41° |
| 2026-04-28 17:25 | 36.83534 | -67.85566 | 34931 ft | 431 kts | 41° |
| 2026-04-28 17:26 | 36.97909 | -67.61599 | 34917 ft | 430 kts | 41° |
| 2026-04-28 17:26 | 37.12275 | -67.37483 | 34908 ft | 434 kts | 42° |
| 2026-04-28 17:27 | 37.26667 | -67.13147 | 34883 ft | 442 kts | 44° |
| 2026-04-28 17:27 | 37.41507 | -66.87846 | 34887 ft | 455 kts | 46° |
| 2026-04-28 17:28 | 37.53089 | -66.67954 | 34851 ft | 461 kts | 47° |
| 2026-04-28 17:28 | 37.75746 | -66.28637 | 34831 ft | 461 kts | 48° |
| 2026-04-28 17:29 | 37.90730 | -66.02381 | 34843 ft | 464 kts | 50° |
| 2026-04-28 17:30 | 38.13416 | -65.62224 | 34820 ft | 469 kts | 52° |
| 2026-04-28 17:30 | 38.36165 | -65.21456 | 34790 ft | 473 kts | 54° |
| 2026-04-28 17:31 | 38.53256 | -64.91539 | 34809 ft | 474 kts | 49° |
| 2026-04-28 17:32 | 38.80220 | -64.54263 | 34794 ft | 476 kts | 49° |
| 2026-04-28 17:32 | 38.98024 | -64.29137 | 34781 ft | 476 kts | 50° |
| 2026-04-28 17:33 | 39.15824 | -64.03831 | 34786 ft | 477 kts | 52° |
| 2026-04-28 17:33 | 39.27622 | -63.86943 | 34810 ft | 479 kts | 53° |
| 2026-04-28 17:34 | 39.51369 | -63.52669 | 34812 ft | 481 kts | 54° |
| 2026-04-28 17:34 | 39.69202 | -63.26675 | 34843 ft | 482 kts | 53° |
| 2026-04-28 17:35 | 39.81219 | -63.09033 | 34924 ft | 490 kts | 53° |
| 2026-04-28 17:35 | 39.85364 | -63.02911 | 34918 ft | 501 kts | 54° |
| 2026-04-28 17:35 | 39.87886 | -62.99194 | 34817 ft | 490 kts | 53° |
| 2026-04-28 17:36 | 40.00150 | -62.81047 | 34824 ft | 486 kts | 53° |
| 2026-04-28 17:36 | 40.14031 | -62.60357 | 34950 ft | 492 kts | 53° |
| 2026-04-28 17:37 | 40.31872 | -62.33557 | 34963 ft | 506 kts | 53° |
| 2026-04-28 17:37 | 40.50418 | -62.05455 | 35034 ft | 512 kts | 52° |
| 2026-04-28 17:38 | 40.57003 | -61.95413 | 35138 ft | 514 kts | 52° |
| 2026-04-28 17:38 | 40.59336 | -61.91847 | 35036 ft | 512 kts | 52° |
| 2026-04-28 17:38 | 40.73223 | -61.70544 | 35074 ft | 501 kts | 52° |
| 2026-04-28 17:39 | 40.90905 | -61.43183 | 35195 ft | 513 kts | 51° |
| 2026-04-28 17:40 | 41.11062 | -61.11707 | 35113 ft | 522 kts | 51° |
| 2026-04-28 17:40 | 41.29655 | -60.82374 | 35144 ft | 515 kts | 51° |
| 2026-04-28 17:41 | 41.48078 | -60.53023 | 35203 ft | 517 kts | 51° |
| 2026-04-28 17:41 | 41.66541 | -60.23323 | 35237 ft | 521 kts | 51° |
| 2026-04-28 17:42 | 41.85067 | -59.93224 | 35266 ft | 524 kts | 50° |
| 2026-04-28 17:42 | 42.03587 | -59.62829 | 35287 ft | 527 kts | 50° |
| 2026-04-28 17:43 | 42.22100 | -59.32134 | 35297 ft | 527 kts | 50° |
| 2026-04-28 17:43 | 42.40405 | -59.01470 | 35331 ft | 526 kts | 50° |
| 2026-04-28 17:44 | 42.58701 | -58.70501 | 35363 ft | 526 kts | 50° |
| 2026-04-28 17:44 | 42.76917 | -58.39344 | 35366 ft | 526 kts | 50° |
| 2026-04-28 17:45 | 42.94972 | -58.08134 | 35412 ft | 522 kts | 49° |
| 2026-04-28 17:45 | 43.05865 | -57.89225 | 35388 ft | 519 kts | 45° |
| 2026-04-28 17:46 | 43.12009 | -57.82104 | 35407 ft | 505 kts | 29° |
| 2026-04-28 17:46 | 43.35265 | -57.60930 | 35396 ft | 500 kts | 30° |
| 2026-04-28 17:47 | 43.58179 | -57.39525 | 35446 ft | 498 kts | 29° |
| 2026-04-28 17:47 | 43.81035 | -57.18011 | 35440 ft | 495 kts | 29° |
| 2026-04-28 17:48 | 43.96921 | -57.02770 | 35423 ft | 497 kts | 36° |
| 2026-04-28 17:48 | 44.01482 | -56.95437 | 35480 ft | 510 kts | 55° |
| 2026-04-28 17:48 | 44.03706 | -56.89385 | 35695 ft | 514 kts | 63° |
| 2026-04-28 17:49 | 44.06266 | -56.81444 | 36162 ft | 510 kts | 64° |
| 2026-04-28 17:49 | 44.07683 | -56.76933 | 36388 ft | 509 kts | 64° |
| 2026-04-28 17:49 | 44.09104 | -56.72423 | 36560 ft | 509 kts | 64° |
| 2026-04-28 17:49 | 44.10538 | -56.67917 | 36720 ft | 509 kts | 64° |
| 2026-04-28 17:50 | 44.11979 | -56.63435 | 36934 ft | 507 kts | 64° |
| 2026-04-28 17:50 | 44.13429 | -56.58954 | 37153 ft | 506 kts | 64° |
| 2026-04-28 17:50 | 44.14879 | -56.54486 | 37319 ft | 507 kts | 64° |
| 2026-04-28 17:50 | 44.16334 | -56.50007 | 37425 ft | 508 kts | 64° |
| 2026-04-28 17:51 | 44.21189 | -56.35010 | 37494 ft | 514 kts | 65° |
| 2026-04-28 17:51 | 44.32882 | -55.98450 | 37441 ft | 514 kts | 64° |
| 2026-04-28 17:52 | 44.44314 | -55.62202 | 37447 ft | 505 kts | 64° |
| 2026-04-28 17:52 | 44.61052 | -55.08207 | 37482 ft | 503 kts | 64° |
| 2026-04-28 17:53 | 44.72069 | -54.72034 | 37492 ft | 504 kts | 64° |
| 2026-04-28 17:53 | 44.82939 | -54.35835 | 37486 ft | 505 kts | 64° |
| 2026-04-28 17:54 | 44.93778 | -53.99211 | 37487 ft | 506 kts | 64° |
| 2026-04-28 17:54 | 45.04519 | -53.62379 | 37482 ft | 507 kts | 64° |
| 2026-04-28 17:55 | 45.15139 | -53.25422 | 37487 ft | 507 kts | 65° |
| 2026-04-28 17:55 | 45.25666 | -52.88230 | 37482 ft | 506 kts | 65° |
| 2026-04-28 17:56 | 45.36035 | -52.51033 | 37460 ft | 506 kts | 65° |
| 2026-04-28 17:56 | 45.46271 | -52.13739 | 37477 ft | 506 kts | 65° |
| 2026-04-28 17:57 | 45.54088 | -51.84435 | 37491 ft | 506 kts | 66° |
| 2026-04-28 17:57 | 45.63744 | -51.46745 | 37484 ft | 504 kts | 67° |
| 2026-04-28 17:58 | 45.73232 | -51.09269 | 37483 ft | 503 kts | 67° |
| 2026-04-28 17:58 | 45.82627 | -50.71522 | 37480 ft | 502 kts | 67° |
| 2026-04-28 17:59 | 45.91887 | -50.33692 | 37468 ft | 501 kts | 68° |
| 2026-04-28 17:59 | 45.99964 | -50.00164 | 37436 ft | 500 kts | 68° |
| 2026-04-28 18:00 | 46.08403 | -49.66468 | 37448 ft | 500 kts | 67° |
| 2026-04-28 18:00 | 46.17719 | -49.28707 | 37429 ft | 500 kts | 68° |
| 2026-04-28 18:01 | 46.26899 | -48.90848 | 37419 ft | 499 kts | 68° |
| 2026-04-28 18:01 | 46.35928 | -48.52975 | 37415 ft | 498 kts | 68° |
| 2026-04-28 18:02 | 46.44778 | -48.15207 | 37402 ft | 497 kts | 69° |
| 2026-04-28 18:02 | 46.53536 | -47.77170 | 37390 ft | 496 kts | 69° |
| 2026-04-28 18:03 | 46.62178 | -47.38969 | 37386 ft | 496 kts | 69° |
| 2026-04-28 18:03 | 46.70673 | -47.00729 | 37375 ft | 496 kts | 70° |
| 2026-04-28 18:04 | 46.79038 | -46.62386 | 37368 ft | 496 kts | 70° |
| 2026-04-28 18:04 | 46.87271 | -46.23939 | 37356 ft | 496 kts | 70° |
| 2026-04-28 18:05 | 46.94030 | -45.91826 | 37351 ft | 497 kts | 70° |
| 2026-04-28 18:05 | 47.03333 | -45.46771 | 37335 ft | 498 kts | 71° |
| 2026-04-28 18:06 | 47.11216 | -45.07783 | 37327 ft | 498 kts | 71° |
| 2026-04-28 18:06 | 47.18980 | -44.68603 | 37318 ft | 499 kts | 71° |
| 2026-04-28 18:07 | 47.26611 | -44.29309 | 37313 ft | 499 kts | 71° |
| 2026-04-28 18:07 | 47.34107 | -43.89903 | 37306 ft | 499 kts | 71° |
| 2026-04-28 18:08 | 47.41469 | -43.50380 | 37291 ft | 498 kts | 72° |
| 2026-04-28 18:08 | 47.48685 | -43.10798 | 37274 ft | 498 kts | 72° |
| 2026-04-28 18:09 | 47.55706 | -42.71441 | 37258 ft | 498 kts | 73° |
| 2026-04-28 18:09 | 47.62632 | -42.31753 | 37244 ft | 497 kts | 73° |
| 2026-04-28 18:10 | 47.69408 | -41.92030 | 37233 ft | 496 kts | 73° |
| 2026-04-28 18:10 | 47.76083 | -41.51986 | 37236 ft | 496 kts | 74° |
| 2026-04-28 18:11 | 47.82558 | -41.12213 | 37204 ft | 494 kts | 74° |
| 2026-04-28 18:11 | 47.88841 | -40.72689 | 37207 ft | 493 kts | 75° |
| 2026-04-28 18:12 | 47.95012 | -40.32902 | 37203 ft | 490 kts | 75° |
| 2026-04-28 18:12 | 47.99941 | -40.00485 | 37187 ft | 488 kts | 73° |
| 2026-04-28 18:13 | 48.06771 | -39.72817 | 37180 ft | 484 kts | 66° |
| 2026-04-28 18:13 | 48.16183 | -39.35086 | 37156 ft | 483 kts | 67° |
| 2026-04-28 18:14 | 48.25372 | -38.97302 | 37171 ft | 480 kts | 67° |
| 2026-04-28 18:14 | 48.34375 | -38.59682 | 37137 ft | 477 kts | 67° |
| 2026-04-28 18:15 | 48.43208 | -38.22130 | 37135 ft | 475 kts | 67° |
| 2026-04-28 18:15 | 48.51857 | -37.84756 | 37132 ft | 474 kts | 68° |
| 2026-04-28 18:16 | 48.60405 | -37.47085 | 37119 ft | 474 kts | 68° |
| 2026-04-28 18:16 | 48.68844 | -37.09267 | 37107 ft | 475 kts | 70° |
| 2026-04-28 18:17 | 48.77197 | -36.71155 | 37107 ft | 476 kts | 70° |
| 2026-04-28 18:17 | 48.85393 | -36.33037 | 37092 ft | 473 kts | 71° |
| 2026-04-28 18:18 | 48.93410 | -35.95067 | 37072 ft | 471 kts | 72° |
| 2026-04-28 18:18 | 48.99969 | -35.63451 | 37075 ft | 470 kts | 72° |
| 2026-04-28 18:19 | 49.08999 | -35.19098 | 37053 ft | 472 kts | 73° |
| 2026-04-28 18:19 | 49.16654 | -34.80685 | 37036 ft | 473 kts | 74° |
| 2026-04-28 18:20 | 49.24197 | -34.42083 | 37036 ft | 474 kts | 75° |
| 2026-04-28 18:20 | 49.31654 | -34.03130 | 37031 ft | 477 kts | 76° |
| 2026-04-28 18:21 | 49.38955 | -33.64221 | 37022 ft | 477 kts | 77° |
| 2026-04-28 18:21 | 49.45139 | -33.30558 | 37082 ft | 480 kts | 76° |
| 2026-04-28 18:22 | 49.46747 | -33.21715 | 37727 ft | 473 kts | 77° |
| 2026-04-28 18:22 | 49.47629 | -33.16842 | 37872 ft | 475 kts | 77° |
| 2026-04-28 18:22 | 49.49401 | -33.07009 | 38036 ft | 479 kts | 77° |
| 2026-04-28 18:23 | 49.50289 | -33.02061 | 38172 ft | 479 kts | 77° |
| 2026-04-28 18:23 | 49.51176 | -32.97108 | 38379 ft | 479 kts | 77° |
| 2026-04-28 18:23 | 49.52057 | -32.92176 | 38609 ft | 478 kts | 77° |
| 2026-04-28 18:23 | 49.52938 | -32.87235 | 38736 ft | 479 kts | 77° |
| 2026-04-28 18:24 | 49.53818 | -32.82281 | 38855 ft | 479 kts | 77° |
| 2026-04-28 18:24 | 49.54397 | -32.79011 | 38928 ft | 479 kts | 77° |
| 2026-04-28 18:24 | 49.60435 | -32.44601 | 39014 ft | 486 kts | 78° |
| 2026-04-28 18:25 | 49.67334 | -32.04437 | 38983 ft | 485 kts | 79° |
| 2026-04-28 18:26 | 49.77264 | -31.44909 | 39003 ft | 474 kts | 80° |
| 2026-04-28 18:26 | 49.83741 | -31.04899 | 39039 ft | 485 kts | 81° |
| 2026-04-28 18:27 | 49.90216 | -30.63959 | 38995 ft | 490 kts | 81° |
| 2026-04-28 18:27 | 49.96531 | -30.22993 | 38980 ft | 483 kts | 82° |
| 2026-04-28 18:28 | 50.00418 | -29.97938 | 38991 ft | 483 kts | 76° |
| 2026-04-28 18:28 | 50.09598 | -29.61779 | 39014 ft | 487 kts | 73° |
| 2026-04-28 18:29 | 50.19276 | -29.22474 | 39029 ft | 488 kts | 74° |
| 2026-04-28 18:29 | 50.28897 | -28.82735 | 39028 ft | 489 kts | 74° |
| 2026-04-28 18:30 | 50.38398 | -28.42760 | 39081 ft | 490 kts | 75° |
| 2026-04-28 18:30 | 50.47764 | -28.02608 | 39091 ft | 491 kts | 75° |
| 2026-04-28 18:31 | 50.55452 | -27.69084 | 39086 ft | 491 kts | 75° |
| 2026-04-28 18:31 | 50.64560 | -27.28674 | 39084 ft | 489 kts | 75° |
| 2026-04-28 18:32 | 50.73477 | -26.88328 | 39086 ft | 484 kts | 75° |
| 2026-04-28 18:32 | 50.82173 | -26.48206 | 39102 ft | 481 kts | 76° |
| 2026-04-28 18:33 | 50.90698 | -26.08092 | 39118 ft | 480 kts | 76° |
| 2026-04-28 18:33 | 50.99081 | -25.67856 | 39139 ft | 480 kts | 76° |
| 2026-04-28 18:34 | 51.07328 | -25.27464 | 39135 ft | 480 kts | 76° |
| 2026-04-28 18:34 | 51.15414 | -24.87036 | 39150 ft | 479 kts | 77° |
| 2026-04-28 18:35 | 51.23354 | -24.46495 | 39163 ft | 478 kts | 77° |
| 2026-04-28 18:35 | 51.31137 | -24.05906 | 39165 ft | 478 kts | 77° |
| 2026-04-28 18:36 | 51.38771 | -23.65220 | 39203 ft | 478 kts | 77° |
| 2026-04-28 18:36 | 51.46225 | -23.24619 | 39220 ft | 478 kts | 77° |
| 2026-04-28 18:37 | 51.53596 | -22.83553 | 39229 ft | 478 kts | 78° |
| 2026-04-28 18:37 | 51.60805 | -22.42470 | 39229 ft | 476 kts | 78° |
| 2026-04-28 18:38 | 51.67820 | -22.01550 | 39240 ft | 472 kts | 78° |
| 2026-04-28 18:38 | 51.74653 | -21.60738 | 39258 ft | 469 kts | 78° |
| 2026-04-28 18:39 | 51.81310 | -21.20016 | 39278 ft | 468 kts | 78° |
| 2026-04-28 18:39 | 51.87775 | -20.79496 | 39285 ft | 466 kts | 78° |
| 2026-04-28 18:40 | 51.94107 | -20.38817 | 39291 ft | 465 kts | 78° |
| 2026-04-28 18:40 | 51.99642 | -20.02391 | 39306 ft | 465 kts | 79° |
| 2026-04-28 18:41 | 52.00482 | -19.81239 | 39322 ft | 460 kts | 91° |
| 2026-04-28 18:41 | 52.01113 | -19.39656 | 39304 ft | 460 kts | 90° |
| 2026-04-28 18:42 | 52.01718 | -18.98195 | 39319 ft | 459 kts | 90° |
| 2026-04-28 18:42 | 52.02162 | -18.57056 | 39327 ft | 458 kts | 90° |
| 2026-04-28 18:43 | 52.02464 | -18.15714 | 39331 ft | 457 kts | 90° |
| 2026-04-28 18:43 | 52.02622 | -17.74489 | 39339 ft | 456 kts | 90° |
| 2026-04-28 18:44 | 52.02635 | -17.33278 | 39347 ft | 455 kts | 91° |
| 2026-04-28 18:44 | 52.02388 | -16.71850 | 39342 ft | 452 kts | 91° |
| 2026-04-28 18:45 | 52.02049 | -16.31144 | 39351 ft | 449 kts | 91° |
| 2026-04-28 18:45 | 52.01572 | -15.90630 | 39342 ft | 448 kts | 91° |
| 2026-04-28 18:46 | 52.00957 | -15.50219 | 39351 ft | 448 kts | 92° |
| 2026-04-28 18:46 | 52.00205 | -15.09835 | 39355 ft | 448 kts | 92° |
| 2026-04-28 18:47 | 52.00009 | -14.79162 | 39364 ft | 447 kts | 89° |
| 2026-04-28 18:47 | 52.00104 | -14.38773 | 39354 ft | 447 kts | 90° |
| 2026-04-28 18:48 | 52.00007 | -14.01048 | 39355 ft | 446 kts | 90° |
| 2026-04-28 18:48 | 51.99230 | -13.67538 | 39361 ft | 445 kts | 92° |
| 2026-04-28 18:49 | 51.98298 | -13.33901 | 39359 ft | 445 kts | 92° |
| 2026-04-28 18:49 | 51.96888 | -12.87527 | 39353 ft | 441 kts | 92° |
| 2026-04-28 18:50 | 51.95536 | -12.47944 | 39357 ft | 438 kts | 92° |
| 2026-04-28 18:50 | 51.94058 | -12.08575 | 39362 ft | 436 kts | 92° |
| 2026-04-28 18:51 | 51.92459 | -11.69457 | 39376 ft | 433 kts | 92° |
| 2026-04-28 18:51 | 51.90741 | -11.30582 | 39338 ft | 431 kts | 92° |
| 2026-04-28 18:52 | 51.88902 | -10.91872 | 39348 ft | 431 kts | 92° |
| 2026-04-28 18:52 | 51.86948 | -10.53455 | 39346 ft | 429 kts | 92° |
| 2026-04-28 18:53 | 51.84870 | -10.15064 | 39342 ft | 427 kts | 92° |
| 2026-04-28 18:53 | 51.82673 | -9.76824 | 39368 ft | 427 kts | 92° |
| 2026-04-28 18:54 | 51.80355 | -9.38656 | 39350 ft | 426 kts | 92° |
| 2026-04-28 18:54 | 51.77915 | -9.00545 | 39341 ft | 426 kts | 92° |
| 2026-04-28 18:55 | 51.75793 | -8.68924 | 39381 ft | 425 kts | 92° |
| 2026-04-28 18:55 | 51.72681 | -8.24687 | 39373 ft | 424 kts | 92° |
| 2026-04-28 18:56 | 51.69889 | -7.86921 | 39347 ft | 424 kts | 92° |
| 2026-04-28 18:56 | 51.66996 | -7.49457 | 39358 ft | 424 kts | 92° |
| 2026-04-28 18:57 | 51.63961 | -7.11759 | 39348 ft | 426 kts | 93° |
| 2026-04-28 18:57 | 51.61805 | -6.87129 | 39346 ft | 431 kts | 99° |
| 2026-04-28 18:58 | 51.56242 | -6.64437 | 39378 ft | 440 kts | 107° |
| 2026-04-28 18:58 | 51.46894 | -6.28017 | 39321 ft | 441 kts | 107° |
| 2026-04-28 18:59 | 51.37502 | -5.91830 | 39314 ft | 443 kts | 108° |
| 2026-04-28 18:59 | 51.27914 | -5.55490 | 39313 ft | 443 kts | 109° |
| 2026-04-28 19:00 | 51.18196 | -5.19234 | 39285 ft | 445 kts | 109° |
| 2026-04-28 19:00 | 51.10296 | -4.90175 | 39289 ft | 447 kts | 109° |
| 2026-04-28 19:01 | 51.07808 | -4.81106 | 39286 ft | 447 kts | 109° |
| 2026-04-28 19:01 | 51.05315 | -4.72050 | 39291 ft | 447 kts | 110° |
| 2026-04-28 19:02 | 51.02811 | -4.62984 | 39279 ft | 448 kts | 110° |
| 2026-04-28 19:02 | 51.00317 | -4.53987 | 39276 ft | 448 kts | 110° |
| 2026-04-28 19:03 | 50.97800 | -4.44947 | 39276 ft | 448 kts | 110° |
| 2026-04-28 19:03 | 50.95274 | -4.35905 | 39273 ft | 448 kts | 110° |
| 2026-04-28 19:04 | 50.92745 | -4.26891 | 39270 ft | 448 kts | 110° |
| 2026-04-28 19:04 | 50.90209 | -4.17885 | 39279 ft | 447 kts | 110° |
| 2026-04-28 19:05 | 50.87672 | -4.08908 | 39259 ft | 446 kts | 110° |
| 2026-04-28 19:05 | 50.85136 | -3.99962 | 39259 ft | 444 kts | 110° |
| 2026-04-28 19:06 | 50.83027 | -3.92553 | 39261 ft | 444 kts | 110° |
| 2026-04-28 19:06 | 50.80494 | -3.81985 | 39266 ft | 441 kts | 104° |
| 2026-04-28 19:07 | 50.78622 | -3.72726 | 39257 ft | 443 kts | 104° |
| 2026-04-28 19:07 | 50.76717 | -3.63447 | 39248 ft | 445 kts | 105° |
| 2026-04-28 19:08 | 50.74758 | -3.54142 | 39242 ft | 446 kts | 105° |
| 2026-04-28 19:08 | 50.72782 | -3.44856 | 39240 ft | 447 kts | 105° |
| 2026-04-28 19:09 | 50.70796 | -3.35568 | 39239 ft | 447 kts | 105° |
| 2026-04-28 19:09 | 50.68803 | -3.26279 | 39239 ft | 447 kts | 105° |
| 2026-04-28 19:10 | 50.66800 | -3.16977 | 39236 ft | 448 kts | 106° |
| 2026-04-28 19:10 | 50.65796 | -3.12330 | 39076 ft | 450 kts | 106° |
| 2026-04-28 19:10 | 50.64785 | -3.07669 | 38583 ft | 446 kts | 106° |
| 2026-04-28 19:11 | 50.63939 | -3.03062 | 37659 ft | 443 kts | 98° |
| 2026-04-28 19:11 | 50.63567 | -2.98225 | 37010 ft | 435 kts | 91° |
| 2026-04-28 19:11 | 50.63546 | -2.93509 | 36266 ft | 430 kts | 84° |
| 2026-04-28 19:11 | 50.63950 | -2.88866 | 35538 ft | 425 kts | 78° |
| 2026-04-28 19:12 | 50.64482 | -2.84305 | 34602 ft | 425 kts | 78° |
| 2026-04-28 19:12 | 50.65026 | -2.79756 | 33879 ft | 419 kts | 78° |
| 2026-04-28 19:12 | 50.65546 | -2.75325 | 32778 ft | 419 kts | 79° |
| 2026-04-28 19:12 | 50.66068 | -2.70762 | 31853 ft | 415 kts | 79° |
| 2026-04-28 19:13 | 50.66559 | -2.66380 | 30998 ft | 408 kts | 79° |
| 2026-04-28 19:13 | 50.67049 | -2.61973 | 29903 ft | 407 kts | 79° |
| 2026-04-28 19:13 | 50.67531 | -2.57603 | 28719 ft | 403 kts | 79° |
| 2026-04-28 19:13 | 50.68010 | -2.53227 | 27694 ft | 393 kts | 80° |
| 2026-04-28 19:14 | 50.68202 | -2.50445 | 27420 ft | 384 kts | 86° |
| 2026-04-28 19:14 | 50.68069 | -2.46146 | 26977 ft | 398 kts | 91° |
| 2026-04-28 19:14 | 50.67781 | -2.40318 | 26541 ft | 404 kts | 91° |
| 2026-04-28 19:14 | 50.67569 | -2.35926 | 26249 ft | 400 kts | 91° |
| 2026-04-28 19:15 | 50.67368 | -2.31566 | 25973 ft | 397 kts | 91° |
| 2026-04-28 19:15 | 50.67237 | -2.28633 | 25793 ft | 396 kts | 91° |
| 2026-04-28 19:15 | 50.67048 | -2.24314 | 25526 ft | 395 kts | 91° |
| 2026-04-28 19:15 | 50.66924 | -2.21456 | 25359 ft | 394 kts | 91° |
| 2026-04-28 19:16 | 50.66673 | -2.15700 | 25002 ft | 393 kts | 91° |
| 2026-04-28 19:16 | 50.66485 | -2.11404 | 24739 ft | 392 kts | 91° |
| 2026-04-28 19:16 | 50.66294 | -2.07126 | 24480 ft | 391 kts | 91° |
| 2026-04-28 19:16 | 50.66104 | -2.02853 | 24215 ft | 390 kts | 91° |
| 2026-04-28 19:17 | 50.66041 | -1.98596 | 23958 ft | 387 kts | 88° |
| 2026-04-28 19:17 | 50.66094 | -1.94361 | 23674 ft | 385 kts | 86° |
| 2026-04-28 19:17 | 50.66177 | -1.90154 | 23376 ft | 383 kts | 86° |
| 2026-04-28 19:17 | 50.66256 | -1.86017 | 23081 ft | 381 kts | 87° |
| 2026-04-28 19:18 | 50.66325 | -1.81845 | 22835 ft | 380 kts | 88° |
| 2026-04-28 19:18 | 50.66381 | -1.77681 | 22574 ft | 380 kts | 88° |
| 2026-04-28 19:18 | 50.66429 | -1.73505 | 22319 ft | 380 kts | 88° |
| 2026-04-28 19:18 | 50.66473 | -1.69338 | 22064 ft | 380 kts | 88° |
| 2026-04-28 19:19 | 50.66515 | -1.65170 | 21810 ft | 380 kts | 88° |
| 2026-04-28 19:19 | 50.66555 | -1.60991 | 21555 ft | 380 kts | 88° |
| 2026-04-28 19:19 | 50.66594 | -1.56820 | 21298 ft | 380 kts | 88° |
| 2026-04-28 19:19 | 50.66615 | -1.52645 | 20955 ft | 382 kts | 89° |
| 2026-04-28 19:20 | 50.66563 | -1.48433 | 20548 ft | 385 kts | 90° |
| 2026-04-28 19:20 | 50.66491 | -1.44211 | 20154 ft | 383 kts | 90° |
| 2026-04-28 19:20 | 50.66425 | -1.40019 | 19766 ft | 382 kts | 90° |
| 2026-04-28 19:20 | 50.66382 | -1.35830 | 19371 ft | 382 kts | 89° |
| 2026-04-28 19:21 | 50.66805 | -1.31693 | 18973 ft | 385 kts | 75° |
| 2026-04-28 19:21 | 50.67751 | -1.27739 | 18604 ft | 386 kts | 70° |
| 2026-04-28 19:21 | 50.68765 | -1.23868 | 18165 ft | 387 kts | 70° |
| 2026-04-28 19:21 | 50.69803 | -1.19952 | 17728 ft | 386 kts | 70° |
| 2026-04-28 19:22 | 50.70827 | -1.16058 | 17312 ft | 384 kts | 70° |
| 2026-04-28 19:22 | 50.71510 | -1.13430 | 17051 ft | 382 kts | 70° |
| 2026-04-28 19:22 | 50.72828 | -1.08306 | 16522 ft | 379 kts | 70° |
| 2026-04-28 19:22 | 50.73812 | -1.04446 | 16128 ft | 378 kts | 71° |
| 2026-04-28 19:23 | 50.74787 | -1.00603 | 15744 ft | 376 kts | 71° |
| 2026-04-28 19:23 | 50.75756 | -0.96774 | 15364 ft | 375 kts | 71° |
| 2026-04-28 19:23 | 50.76722 | -0.92948 | 14967 ft | 374 kts | 71° |
| 2026-04-28 19:23 | 50.77673 | -0.89178 | 14583 ft | 363 kts | 71° |
| 2026-04-28 19:24 | 50.78586 | -0.85561 | 14216 ft | 346 kts | 71° |
| 2026-04-28 19:24 | 50.79457 | -0.82105 | 13850 ft | 332 kts | 71° |
| 2026-04-28 19:24 | 50.80284 | -0.78814 | 13616 ft | 309 kts | 71° |
| 2026-04-28 19:24 | 50.81041 | -0.75785 | 13430 ft | 284 kts | 73° |
| 2026-04-28 19:25 | 50.81534 | -0.72899 | 13252 ft | 261 kts | 81° |
| 2026-04-28 19:25 | 50.81850 | -0.70194 | 13111 ft | 241 kts | 83° |
| 2026-04-28 19:25 | 50.82123 | -0.67640 | 12749 ft | 232 kts | 83° |
| 2026-04-28 19:25 | 50.82389 | -0.65151 | 12122 ft | 229 kts | 83° |
| 2026-04-28 19:26 | 50.82659 | -0.62667 | 11364 ft | 229 kts | 82° |
| 2026-04-28 19:26 | 50.82932 | -0.60194 | 10611 ft | 228 kts | 82° |
| 2026-04-28 19:26 | 50.83284 | -0.57763 | 9866 ft | 227 kts | 69° |
| 2026-04-28 19:26 | 50.84291 | -0.55826 | 9031 ft | 235 kts | 38° |
| 2026-04-28 19:27 | 50.85859 | -0.54996 | 8272 ft | 247 kts | 10° |
| 2026-04-28 19:27 | 50.87577 | -0.54932 | 7555 ft | 252 kts | 6° |
| 2026-04-28 19:27 | 50.89322 | -0.54871 | 6947 ft | 248 kts | 10° |
| 2026-04-28 19:27 | 50.91020 | -0.54696 | 6499 ft | 243 kts | 11° |
| 2026-04-28 19:28 | 50.92700 | -0.54518 | 6017 ft | 242 kts | 11° |
| 2026-04-28 19:28 | 50.94381 | -0.54340 | 5506 ft | 241 kts | 11° |
| 2026-04-28 19:28 | 50.96037 | -0.54169 | 4998 ft | 236 kts | 11° |
| 2026-04-28 19:28 | 50.97654 | -0.54008 | 4626 ft | 227 kts | 12° |
| 2026-04-28 19:29 | 50.99203 | -0.53770 | 4379 ft | 221 kts | 14° |
| 2026-04-28 19:29 | 51.00161 | -0.53388 | 4187 ft | 209 kts | 28° |